createdAt,value
2019-04-10T00:00:02.485Z,0.0
2019-04-10T00:10:01.495Z,0.0
2019-04-10T00:15:01.281Z,0.0
2019-04-10T00:25:02.528Z,0.0
2019-04-10T00:30:01.176Z,0.0
2019-04-10T00:35:02.719Z,0.0
2019-04-10T00:45:02.405Z,0.0
2019-04-10T00:55:01.889Z,0.0
2019-04-10T01:00:01.343Z,0.4
2019-04-10T01:05:01.245Z,0.5
2019-04-10T01:10:02.401Z,0.6
2019-04-10T01:15:04.591Z,0.6
2019-04-10T01:20:01.176Z,0.6
2019-04-10T01:25:02.464Z,0.2
2019-04-10T01:30:02.659Z,0.1
2019-04-10T01:35:02.739Z,0.0
2019-04-10T01:40:01.177Z,0.0
2019-04-10T01:45:01.338Z,0.0
2019-04-10T01:50:02.419Z,0.0
2019-04-10T02:00:02.631Z,0.0
2019-04-10T02:05:01.370Z,0.0
2019-04-10T02:15:01.169Z,0.0
2019-04-10T02:20:01.256Z,0.0
2019-04-10T02:25:01.215Z,0.0
2019-04-10T02:30:01.614Z,0.0
2019-04-10T02:35:03.628Z,0.0
2019-04-10T02:40:09.757Z,0.0
2019-04-10T02:45:03.077Z,0.0
2019-04-10T02:55:04.031Z,0.0
2019-04-10T03:00:05.774Z,0.0
2019-04-10T03:05:01.872Z,0.0
2019-04-10T03:15:05.549Z,0.0
2019-04-10T03:20:02.401Z,0.1
2019-04-10T03:30:07.421Z,0.1
2019-04-10T03:40:01.290Z,0.0
2019-04-10T03:45:01.423Z,0.1
2019-04-10T03:50:01.233Z,0.2
2019-04-10T04:00:01.986Z,0.3
2019-04-10T04:05:02.739Z,0.3
2019-04-10T04:10:02.736Z,0.4
2019-04-10T04:15:03.874Z,0.6
2019-04-10T04:20:02.705Z,0.5
2019-04-10T04:25:01.481Z,0.6
2019-04-10T04:30:01.239Z,0.6
2019-04-10T04:35:02.712Z,0.5
2019-04-10T04:45:01.278Z,0.5
2019-04-10T04:55:02.391Z,0.5
2019-04-10T05:00:01.552Z,0.8
2019-04-10T05:05:08.655Z,0.8
2019-04-10T05:10:02.694Z,0.6
2019-04-10T05:15:02.697Z,0.9
2019-04-10T05:20:01.254Z,1.0
2019-04-10T05:25:01.324Z,1.0
2019-04-10T05:30:02.646Z,1.1
2019-04-10T05:40:01.894Z,0.7
2019-04-10T05:45:01.264Z,0.7
2019-04-10T05:50:02.363Z,0.5
2019-04-10T05:55:02.670Z,0.4
2019-04-10T06:00:01.354Z,0.5
2019-04-10T06:05:02.587Z,0.5
2019-04-10T06:10:10.799Z,0.5
2019-04-10T06:15:02.758Z,0.5
2019-04-10T06:20:01.261Z,0.5
2019-04-10T06:30:06.354Z,0.5
2019-04-10T06:35:03.652Z,0.5
2019-04-10T06:40:22.921Z,0.6
2019-04-10T06:45:01.328Z,0.7
2019-04-10T06:50:02.681Z,0.7
2019-04-10T06:55:01.475Z,0.8
2019-04-10T07:00:02.672Z,0.9
2019-04-10T07:05:11.980Z,1.0
2019-04-10T07:10:02.664Z,1.0
2019-04-10T07:15:02.630Z,1.0
2019-04-10T07:25:02.737Z,0.9
2019-04-10T07:30:02.006Z,1.2
2019-04-10T07:35:03.616Z,1.2
2019-04-10T07:40:06.126Z,1.2
2019-04-10T07:45:01.350Z,1.2
2019-04-10T07:55:01.349Z,0.9
2019-04-10T08:00:01.484Z,1.1
2019-04-10T08:05:02.685Z,1.2
2019-04-10T08:10:01.826Z,1.3
2019-04-10T08:15:03.216Z,1.3
2019-04-10T08:20:07.795Z,1.4
2019-04-10T08:25:02.680Z,1.4
2019-04-10T08:30:01.566Z,1.3
2019-04-10T08:35:01.562Z,1.5
2019-04-10T08:45:01.385Z,1.6
2019-04-10T08:55:02.358Z,1.6
2019-04-10T09:00:02.867Z,1.6
2019-04-10T09:05:01.927Z,1.7
2019-04-10T09:10:02.279Z,1.9
2019-04-10T09:15:01.955Z,2.1
2019-04-10T09:20:02.660Z,2.5
2019-04-10T09:25:02.715Z,2.6
2019-04-10T09:30:02.426Z,2.5
2019-04-10T09:35:03.009Z,2.5
2019-04-10T09:40:01.342Z,2.5
2019-04-10T09:45:02.880Z,2.3
2019-04-10T10:00:01.422Z,2.6
2019-04-10T10:15:02.835Z,2.4
2019-04-10T10:20:02.252Z,2.6
2019-04-10T10:25:02.789Z,2.5
2019-04-10T10:30:02.609Z,2.7
2019-04-10T10:35:01.480Z,2.7
2019-04-10T10:40:01.666Z,2.8
2019-04-10T10:45:02.772Z,2.8
2019-04-10T10:50:01.472Z,3.0
2019-04-10T10:55:01.550Z,2.8
2019-04-10T11:00:02.533Z,3.0
2019-04-10T11:05:08.469Z,3.0
2019-04-10T11:15:03.943Z,2.8
2019-04-10T11:30:05.638Z,2.3
2019-04-10T11:35:04.720Z,2.1
2019-04-10T11:45:06.323Z,2.3
2019-04-10T12:30:00.776Z,3.2
2019-04-10T12:35:00.888Z,3.4
2019-04-10T12:45:02.144Z,4.1
2019-04-10T12:50:00.778Z,4.2
2019-04-10T12:55:02.288Z,4.3
2019-04-10T13:00:05.229Z,4.9
2019-04-10T13:05:01.227Z,5.3
2019-04-10T13:10:00.735Z,5.1
2019-04-10T13:15:01.636Z,5.0
2019-04-10T13:25:02.103Z,4.5
2019-04-10T13:30:01.015Z,4.2
2019-04-10T13:35:04.267Z,3.8
2019-04-10T13:40:02.085Z,3.9
2019-04-10T13:45:01.001Z,4.1
2019-04-10T13:50:02.635Z,4.1
2019-04-10T13:55:01.429Z,4.3
2019-04-10T14:00:02.156Z,4.5
2019-04-10T14:05:00.813Z,4.4
2019-04-10T14:10:01.117Z,4.1
2019-04-10T14:15:01.970Z,4.1
2019-04-10T14:20:01.020Z,3.7
2019-04-10T14:25:01.336Z,3.7
2019-04-10T14:30:01.055Z,4.2
2019-04-10T14:35:01.403Z,4.4
2019-04-10T14:40:01.997Z,4.8
2019-04-10T14:45:01.765Z,5.3
2019-04-10T14:50:02.093Z,5.2
2019-04-10T14:55:01.945Z,4.8
2019-04-10T15:00:01.513Z,4.8
2019-04-10T15:05:02.006Z,4.6
2019-04-10T15:10:00.780Z,4.5
2019-04-10T15:15:02.115Z,4.5
2019-04-10T15:20:01.049Z,4.6
2019-04-10T15:25:01.852Z,4.3
2019-04-10T15:30:00.758Z,4.0
2019-04-10T15:35:02.163Z,3.6
2019-04-10T15:45:01.114Z,3.7
2019-04-10T15:50:01.666Z,3.6
2019-04-10T15:55:02.022Z,3.5
2019-04-10T16:00:01.377Z,4.0
2019-04-10T16:05:01.816Z,3.8
2019-04-10T16:10:06.544Z,4.2
2019-04-10T16:15:03.222Z,4.1
2019-04-10T16:20:02.329Z,4.5
2019-04-10T16:25:01.621Z,4.3
2019-04-10T16:30:04.309Z,4.3
2019-04-10T16:35:01.094Z,4.1
2019-04-10T16:40:10.515Z,4.1
2019-04-10T16:45:02.112Z,3.8
2019-04-10T16:50:01.829Z,3.8
2019-04-10T16:55:00.843Z,4.0
2019-04-10T17:00:00.794Z,3.5
2019-04-10T17:05:00.926Z,3.5
2019-04-10T17:10:24.340Z,3.5
2019-04-10T17:15:02.151Z,3.7
2019-04-10T17:20:02.536Z,3.7
2019-04-10T17:25:02.426Z,3.8
2019-04-10T17:30:01.632Z,4.1
2019-04-10T17:35:01.199Z,4.2
2019-04-10T17:40:03.968Z,4.2
2019-04-10T17:45:00.859Z,3.9
2019-04-10T17:50:00.803Z,4.1
2019-04-10T18:00:01.393Z,3.9
2019-04-10T18:05:02.352Z,3.7
2019-04-10T18:10:02.948Z,3.7
2019-04-10T18:15:02.380Z,3.5
2019-04-10T18:20:01.141Z,3.5
2019-04-10T18:30:00.933Z,3.2
2019-04-10T18:35:00.945Z,3.2
2019-04-10T18:40:01.440Z,3.3
2019-04-10T18:45:02.153Z,3.2
2019-04-10T18:55:00.883Z,3.1
2019-04-10T19:00:06.209Z,3.1
2019-04-10T19:05:00.974Z,2.8
2019-04-10T19:10:02.349Z,2.9
2019-04-10T19:15:00.893Z,2.9
2019-04-10T19:20:02.481Z,3.2
2019-04-10T19:25:02.949Z,3.2
2019-04-10T19:30:00.811Z,3.1
2019-04-10T19:35:00.984Z,3.1
2019-04-10T19:40:01.151Z,2.7
2019-04-10T19:45:02.168Z,2.7
2019-04-10T19:50:01.806Z,2.9
2019-04-10T19:55:00.930Z,3.1
2019-04-10T20:00:00.906Z,3.0
2019-04-10T20:05:01.546Z,2.8
2019-04-10T20:10:04.409Z,2.8
2019-04-10T20:15:00.931Z,2.6
2019-04-10T20:20:00.813Z,2.1
2019-04-10T20:25:02.524Z,1.7
2019-04-10T20:30:02.150Z,1.9
2019-04-10T20:35:02.236Z,1.5
2019-04-10T20:45:01.248Z,1.7
2019-04-10T20:55:01.888Z,1.7
2019-04-10T21:00:02.155Z,1.7
2019-04-10T21:05:11.367Z,1.6
2019-04-10T21:10:01.198Z,1.4
2019-04-10T21:15:01.784Z,1.5
2019-04-10T21:20:02.198Z,1.5
2019-04-10T21:25:00.955Z,1.4
2019-04-10T21:30:02.209Z,1.2
2019-04-10T21:35:02.447Z,1.1
2019-04-10T21:40:00.889Z,1.2
2019-04-10T21:45:02.207Z,1.2
2019-04-10T21:50:00.912Z,1.5
2019-04-10T21:55:02.451Z,1.4
2019-04-10T22:00:02.043Z,1.6
2019-04-10T22:05:00.916Z,1.6
2019-04-10T22:10:01.896Z,1.8
2019-04-10T22:15:01.401Z,1.6
2019-04-10T22:20:01.683Z,1.5
2019-04-10T22:30:00.986Z,1.4
2019-04-10T22:35:01.449Z,1.1
2019-04-10T22:40:01.315Z,1.2
2019-04-10T22:45:02.778Z,1.3
2019-04-10T22:55:01.773Z,1.3
2019-04-10T23:00:00.940Z,1.5
2019-04-10T23:05:02.235Z,1.2
2019-04-10T23:10:00.919Z,1.0
2019-04-10T23:15:01.171Z,1.0
2019-04-10T23:25:03.040Z,0.9
2019-04-10T23:30:00.896Z,1.0
2019-04-10T23:35:01.577Z,1.1
2019-04-10T23:40:01.113Z,1.1
2019-04-10T23:45:02.045Z,1.1
2019-04-10T23:55:02.199Z,0.9
